Time;durP1;ratioP1;P1;durP2;ratioP2;P2;SDS_P1;SDS_P2;PMS_P1;PMS_P2;Temp;Humidity;BMP_temperature;BMP_pressure;BME280_temperature;BME280_humidity;BME280_pressure;Samples;Min_cycle;Max_cycle;Signal;HPM_P1;HPM_P2
2022/04/11 00:02:17;;;;;;;6.30;2.03;;;10.60;60.10;;;;;;5052678;28;20063;-82
2022/04/11 00:04:43;;;;;;;3.97;1.73;;;10.60;60.30;;;;;;5033728;28;20048;-83
2022/04/11 00:07:09;;;;;;;3.72;1.90;;;10.70;60.30;;;;;;5033800;28;20025;-83
2022/04/11 00:09:35;;;;;;;6.70;2.03;;;10.70;60.30;;;;;;5033848;28;20104;-83
2022/04/11 00:12:01;;;;;;;4.90;2.15;;;10.70;60.30;;;;;;5033172;28;20441;-83
2022/04/11 00:14:27;;;;;;;4.75;2.08;;;10.60;60.80;;;;;;5034165;28;20076;-83
2022/04/11 00:16:52;;;;;;;7.15;2.45;;;10.50;61.20;;;;;;5053364;28;20067;-84
2022/04/11 00:19:18;;;;;;;6.35;2.00;;;10.50;61.60;;;;;;5053422;28;20028;-83
2022/04/11 00:21:44;;;;;;;5.18;1.98;;;10.50;61.80;;;;;;5053233;28;20029;-83
2022/04/11 00:24:10;;;;;;;6.32;2.05;;;10.50;61.90;;;;;;5053518;28;20029;-82
2022/04/11 00:26:35;;;;;;;8.02;1.92;;;10.50;62.10;;;;;;5053515;28;20028;-82
2022/04/11 00:29:01;;;;;;;6.22;1.95;;;10.50;62.00;;;;;;5053062;28;20017;-82
2022/04/11 00:31:27;;;;;;;4.25;2.10;;;10.40;61.60;;;;;;5053471;28;20021;-82
2022/04/11 00:33:52;;;;;;;7.45;2.28;;;10.40;61.70;;;;;;5053162;28;20049;-82
2022/04/11 00:36:18;;;;;;;6.80;2.50;;;10.40;61.70;;;;;;5053220;28;20032;-82
2022/04/11 00:38:44;;;;;;;4.13;1.98;;;10.50;61.50;;;;;;5052967;28;20029;-82
2022/04/11 00:41:09;;;;;;;7.72;2.10;;;10.40;61.20;;;;;;5053083;28;20117;-82
2022/04/11 00:43:39;;;;;;;5.38;2.33;;;10.50;61.30;;;;;;5053271;28;20057;-83
2022/04/11 00:46:06;;;;;;;6.40;2.38;;;10.50;61.10;;;;;;5053283;28;20456;-82
2022/04/11 00:48:32;;;;;;;4.63;2.10;;;10.50;61.30;;;;;;5052834;28;20052;-82
2022/04/11 00:51:20;;;;;;;7.47;2.22;;;10.40;61.20;;;;;;5051618;28;20025;-82
2022/04/11 00:53:46;;;;;;;5.97;2.47;;;10.50;61.40;;;;;;5033283;28;20029;-82
2022/04/11 00:56:15;;;;;;;6.38;2.10;;;10.40;61.40;;;;;;5032706;28;20021;-82
2022/04/11 00:58:41;;;;;;;7.88;2.85;;;10.40;61.60;;;;;;5032076;28;20033;-82
2022/04/11 01:01:08;;;;;;;5.57;2.70;;;10.40;61.80;;;;;;5032409;28;20047;-82
2022/04/11 01:03:34;;;;;;;3.90;2.30;;;10.40;62.10;;;;;;5043872;28;20036;-82
2022/04/11 01:06:00;;;;;;;6.03;2.40;;;10.30;62.20;;;;;;5053050;28;20025;-82
2022/04/11 01:08:26;;;;;;;5.50;2.88;;;10.30;62.40;;;;;;5034816;28;20034;-82
2022/04/11 01:10:52;;;;;;;6.05;2.30;;;10.30;62.60;;;;;;5032849;28;20025;-82
2022/04/11 01:13:18;;;;;;;5.60;2.60;;;10.30;62.80;;;;;;5032494;28;20412;-81
2022/04/11 01:15:54;;;;;;;8.57;3.33;;;10.30;63.00;;;;;;5032857;28;20357;-82
2022/04/11 01:18:19;;;;;;;5.43;2.38;;;10.20;63.00;;;;;;5032781;28;20029;-82
2022/04/11 01:20:45;;;;;;;6.57;2.90;;;10.20;63.10;;;;;;5051955;28;20024;-82
2022/04/11 01:23:10;;;;;;;5.75;2.45;;;10.10;63.20;;;;;;5045060;28;20042;-82
2022/04/11 01:25:37;;;;;;;7.53;2.67;;;10.10;63.50;;;;;;5016572;28;20030;-82
2022/04/11 01:28:03;;;;;;;6.75;2.90;;;10.10;63.50;;;;;;5017186;28;20472;-82
2022/04/11 01:30:29;;;;;;;7.90;2.67;;;10.00;63.70;;;;;;5016715;28;20018;-82
2022/04/11 01:32:54;;;;;;;6.65;2.72;;;10.00;63.90;;;;;;5016957;28;20022;-82
2022/04/11 01:35:22;;;;;;;8.00;2.80;;;9.90;64.00;;;;;;5016719;28;20026;-82
2022/04/11 01:37:48;;;;;;;7.18;2.60;;;9.90;64.20;;;;;;5016777;28;20104;-82
2022/04/11 01:40:14;;;;;;;4.93;2.53;;;9.90;64.00;;;;;;5016618;28;20053;-81
2022/04/11 01:42:40;;;;;;;5.88;2.20;;;9.80;64.10;;;;;;5016775;28;20088;-82
2022/04/11 01:45:09;;;;;;;6.63;2.53;;;9.70;64.20;;;;;;5016783;28;20442;-81
2022/04/11 01:47:34;;;;;;;6.22;3.05;;;9.80;64.40;;;;;;5016779;28;20061;-81
2022/04/11 01:50:00;;;;;;;8.68;2.80;;;9.80;64.50;;;;;;5016145;28;20030;-82
2022/04/11 01:52:26;;;;;;;4.72;3.08;;;9.80;64.50;;;;;;5016733;28;20112;-81
2022/04/11 01:54:51;;;;;;;9.07;3.15;;;9.80;64.20;;;;;;5016250;28;20026;-81
2022/04/11 01:57:17;;;;;;;7.53;2.88;;;9.80;63.80;;;;;;5054302;28;20083;-82
2022/04/11 01:59:42;;;;;;;5.45;3.17;;;9.80;63.80;;;;;;5055774;28;20048;-81
2022/04/11 02:02:08;;;;;;;6.35;2.72;;;9.80;63.90;;;;;;5055948;28;20040;-82
2022/04/11 02:04:34;;;;;;;7.25;2.75;;;9.90;63.90;;;;;;5041093;28;20025;-82
2022/04/11 02:06:59;;;;;;;6.32;2.90;;;9.90;64.00;;;;;;5048472;28;20111;-82
2022/04/11 02:09:25;;;;;;;7.22;3.30;;;9.90;63.90;;;;;;5056096;28;20040;-82
2022/04/11 02:11:51;;;;;;;5.82;3.08;;;9.90;63.90;;;;;;5036146;28;20464;-82
2022/04/11 02:14:16;;;;;;;7.53;3.35;;;9.90;63.60;;;;;;5035519;28;20049;-82
2022/04/11 02:16:42;;;;;;;6.45;3.03;;;9.80;63.70;;;;;;5035692;28;20037;-82
2022/04/11 02:19:07;;;;;;;6.32;3.10;;;9.80;63.60;;;;;;5035877;28;20021;-83
2022/04/11 02:21:33;;;;;;;6.80;3.17;;;9.80;63.60;;;;;;5035205;28;20030;-82
2022/04/11 02:23:58;;;;;;;5.40;3.53;;;9.80;63.50;;;;;;5054612;28;20033;-82
2022/04/11 02:26:24;;;;;;;7.93;3.10;;;9.80;63.50;;;;;;5055454;28;20543;-82
2022/04/11 02:28:49;;;;;;;5.70;3.17;;;9.80;63.70;;;;;;5055601;28;20426;-82
2022/04/11 02:31:15;;;;;;;4.25;2.70;;;9.80;63.80;;;;;;5055646;28;20037;-82
2022/04/11 02:33:41;;;;;;;5.57;2.83;;;9.90;63.70;;;;;;5054480;28;20349;-82
2022/04/11 02:36:06;;;;;;;8.30;2.92;;;9.90;63.40;;;;;;5055384;28;20047;-82
2022/04/11 02:38:33;;;;;;;7.13;3.10;;;9.90;63.40;;;;;;5055595;28;20460;-82
2022/04/11 02:40:58;;;;;;;5.30;3.15;;;9.80;63.50;;;;;;5055426;28;20112;-82
2022/04/11 02:43:24;;;;;;;5.20;2.90;;;9.90;63.50;;;;;;5055031;28;20112;-83
2022/04/11 02:45:49;;;;;;;4.68;3.03;;;9.90;63.40;;;;;;5055405;28;20087;-83
2022/04/11 02:48:15;;;;;;;7.13;3.08;;;9.90;63.40;;;;;;5054986;28;20078;-82
2022/04/11 02:50:41;;;;;;;8.70;2.83;;;9.90;63.40;;;;;;5055171;28;20508;-83
2022/04/11 02:53:07;;;;;;;8.68;2.92;;;9.90;63.30;;;;;;5054959;28;20063;-82
2022/04/11 02:55:32;;;;;;;6.63;3.58;;;9.90;63.40;;;;;;5054821;28;20078;-82
2022/04/11 02:57:58;;;;;;;6.38;3.13;;;9.80;63.40;;;;;;5054960;28;20032;-82
2022/04/11 03:00:23;;;;;;;4.85;3.08;;;9.90;63.50;;;;;;5036780;28;20057;-82
2022/04/11 03:02:49;;;;;;;6.05;3.13;;;9.90;63.60;;;;;;5035037;28;20034;-82
2022/04/11 03:05:15;;;;;;;6.13;3.20;;;9.90;63.50;;;;;;5035151;28;20021;-82
2022/04/11 03:07:40;;;;;;;6.28;3.42;;;9.90;63.60;;;;;;5034070;28;20033;-81
2022/04/11 03:10:07;;;;;;;7.78;3.08;;;9.80;63.70;;;;;;5034133;28;20097;-82
2022/04/11 03:12:34;;;;;;;7.63;3.58;;;9.80;63.70;;;;;;5034295;28;20089;-82
2022/04/11 03:14:59;;;;;;;9.25;3.78;;;9.80;63.80;;;;;;5035232;28;20030;-82
2022/04/11 03:17:25;;;;;;;6.72;3.13;;;9.80;64.10;;;;;;5054603;28;20025;-82
2022/04/11 03:19:51;;;;;;;8.13;3.70;;;9.70;64.20;;;;;;5046994;28;20100;-84
2022/04/11 03:22:16;;;;;;;6.78;3.60;;;9.70;64.30;;;;;;5034716;28;20047;-83
2022/04/11 03:24:42;;;;;;;6.95;3.95;;;9.70;65.10;;;;;;5034459;28;20510;-83
2022/04/11 03:27:08;;;;;;;6.72;3.33;;;9.60;64.60;;;;;;5034076;28;20029;-83
2022/04/11 03:29:33;;;;;;;6.20;3.88;;;9.50;64.80;;;;;;5034539;28;20099;-83
2022/04/11 03:31:59;;;;;;;7.75;3.65;;;9.50;64.80;;;;;;5041517;28;20490;-83
2022/04/11 03:34:24;;;;;;;9.00;3.70;;;9.50;64.90;;;;;;5054342;28;20067;-83
2022/04/11 03:36:51;;;;;;;5.47;3.25;;;9.40;64.90;;;;;;5054454;28;20021;-84
2022/04/11 03:39:17;;;;;;;8.50;4.10;;;9.40;65.10;;;;;;5054280;28;20031;-84
2022/04/11 03:41:45;;;;;;;7.07;4.25;;;9.40;65.20;;;;;;5053815;28;20124;-83
2022/04/11 03:44:11;;;;;;;10.60;3.83;;;9.30;65.40;;;;;;5053968;28;20025;-83
2022/04/11 03:46:38;;;;;;;9.68;5.40;;;9.30;65.70;;;;;;5054001;28;20387;-83
2022/04/11 03:49:03;;;;;;;7.55;3.88;;;9.20;65.80;;;;;;5054198;28;20044;-85
2022/04/11 03:51:29;;;;;;;9.68;4.57;;;9.20;66.00;;;;;;5054131;28;20467;-85
2022/04/11 03:53:55;;;;;;;6.72;3.55;;;9.20;66.10;;;;;;5053899;28;20036;-83
2022/04/11 03:56:21;;;;;;;7.65;4.25;;;9.10;66.40;;;;;;5053669;28;20480;-83
2022/04/11 03:58:47;;;;;;;7.88;4.28;;;9.10;66.40;;;;;;5054044;28;20051;-83
2022/04/11 04:01:12;;;;;;;7.18;3.88;;;9.10;66.50;;;;;;5053603;28;20032;-83
2022/04/11 04:03:39;;;;;;;6.30;3.70;;;9.00;66.60;;;;;;5053713;28;20029;-82
2022/04/11 04:06:04;;;;;;;6.65;3.92;;;9.00;66.40;;;;;;5053823;28;20024;-82
2022/04/11 04:08:30;;;;;;;5.55;3.42;;;9.00;66.60;;;;;;5046689;28;20021;-83
2022/04/11 04:10:56;;;;;;;7.57;4.03;;;9.00;66.80;;;;;;5033784;28;20456;-83
2022/04/11 04:13:21;;;;;;;7.43;4.55;;;8.90;66.50;;;;;;5033536;28;20396;-82
2022/04/11 04:15:47;;;;;;;6.47;4.32;;;9.00;66.50;;;;;;5033383;28;20125;-83
2022/04/11 04:18:13;;;;;;;7.55;4.13;;;9.00;66.40;;;;;;5033166;28;20039;-82
2022/04/11 04:20:39;;;;;;;8.93;4.22;;;9.00;66.10;;;;;;5033307;28;20357;-78
2022/04/11 04:23:05;;;;;;;8.98;4.50;;;9.00;66.10;;;;;;5033009;28;20040;-82
2022/04/11 04:25:33;;;;;;;8.38;4.18;;;9.10;66.10;;;;;;5016164;28;20487;-82
2022/04/11 04:27:59;;;;;;;8.35;4.47;;;9.10;66.20;;;;;;5033186;28;20045;-82
2022/04/11 04:30:24;;;;;;;6.72;4.28;;;9.10;66.30;;;;;;5032696;28;20022;-85
2022/04/11 04:32:50;;;;;;;7.15;4.65;;;9.00;66.40;;;;;;5032993;28;20025;-84
2022/04/11 04:35:16;;;;;;;9.75;4.43;;;9.10;66.50;;;;;;5036242;28;20025;-86
2022/04/11 04:37:41;;;;;;;12.30;5.38;;;9.10;66.60;;;;;;5053500;28;20052;-82
2022/04/11 04:40:08;;;;;;;10.35;4.85;;;9.10;66.80;;;;;;5043251;28;20032;-84
2022/04/11 04:42:33;;;;;;;7.70;4.30;;;9.00;66.90;;;;;;5032923;28;20550;-83
2022/04/11 04:44:59;;;;;;;10.82;4.20;;;8.90;67.10;;;;;;5033345;28;20068;-81
2022/04/11 04:47:28;;;;;;;9.65;4.35;;;9.00;66.80;;;;;;5033197;28;20372;-81
2022/04/11 04:49:54;;;;;;;8.38;3.80;;;9.00;66.60;;;;;;5033246;28;20468;-79
2022/04/11 04:52:19;;;;;;;8.25;4.18;;;9.00;66.50;;;;;;5042369;28;20036;-79
2022/04/11 04:54:45;;;;;;;7.40;4.32;;;8.90;66.50;;;;;;5052526;28;20017;-78
2022/04/11 04:57:10;;;;;;;6.57;4.28;;;9.00;66.50;;;;;;5055830;28;20033;-79
2022/04/11 04:59:36;;;;;;;10.63;5.10;;;9.00;66.70;;;;;;5057215;28;20472;-78
2022/04/11 05:02:02;;;;;;;10.80;4.95;;;9.00;66.70;;;;;;5056889;28;20032;-78
2022/04/11 05:04:27;;;;;;;5.78;4.10;;;9.00;66.40;;;;;;5048920;28;20036;-78
2022/04/11 05:06:53;;;;;;;9.15;4.30;;;9.10;67.80;;;;;;5016908;28;20081;-77
2022/04/11 05:09:19;;;;;;;6.63;3.78;;;9.10;69.30;;;;;;5017279;28;20034;-77
2022/04/11 05:11:44;;;;;;;8.60;4.50;;;9.10;69.50;;;;;;5017144;28;20028;-77
2022/04/11 05:14:10;;;;;;;6.95;3.55;;;9.20;70.30;;;;;;5016565;28;20111;-78
2022/04/11 05:16:35;;;;;;;9.52;4.85;;;9.20;70.00;;;;;;5017294;28;20026;-77
2022/04/11 05:19:02;;;;;;;8.52;4.63;;;9.20;70.60;;;;;;5017143;28;20026;-76
2022/04/11 05:21:28;;;;;;;8.48;4.55;;;9.30;70.90;;;;;;5016692;28;20504;-77
2022/04/11 05:23:54;;;;;;;7.80;4.38;;;9.40;70.60;;;;;;5016766;28;20038;-76
2022/04/11 05:26:19;;;;;;;6.57;3.97;;;9.40;70.00;;;;;;5017038;28;20018;-78
2022/04/11 05:28:46;;;;;;;10.35;4.53;;;9.40;69.90;;;;;;5026009;28;20460;-80
2022/04/11 05:31:11;;;;;;;7.80;4.50;;;9.40;70.20;;;;;;5036837;28;20393;-77
2022/04/11 05:33:37;;;;;;;18.08;4.68;;;9.50;70.10;;;;;;5036275;28;20025;-78
2022/04/11 05:36:03;;;;;;;8.07;4.78;;;9.50;70.40;;;;;;5036274;28;20026;-78
2022/04/11 05:38:28;;;;;;;7.00;4.45;;;9.50;70.10;;;;;;5035791;28;20026;-79
2022/04/11 05:40:56;;;;;;;5.65;4.50;;;9.60;70.20;;;;;;5036241;28;20021;-79
2022/04/11 05:43:22;;;;;;;9.52;3.83;;;9.70;69.90;;;;;;5035796;28;20033;-78
2022/04/11 05:45:47;;;;;;;7.65;4.28;;;9.70;70.70;;;;;;5035241;28;20029;-78
2022/04/11 05:48:13;;;;;;;8.90;4.47;;;9.70;71.70;;;;;;5034879;28;20087;-75
2022/04/11 05:50:38;;;;;;;9.55;5.65;;;9.70;71.10;;;;;;5045281;28;20028;-80
2022/04/11 05:53:04;;;;;;;8.13;5.35;;;9.80;70.70;;;;;;5056267;28;20056;-88
2022/04/11 05:55:30;;;;;;;12.45;6.38;;;9.80;70.30;;;;;;5040723;28;20025;-83
2022/04/11 05:57:55;;;;;;;11.35;6.15;;;9.80;70.70;;;;;;5035915;28;20025;-82
2022/04/11 06:00:21;;;;;;;8.88;5.00;;;9.80;69.90;;;;;;5035665;28;20067;-82
2022/04/11 06:02:48;;;;;;;11.48;6.60;;;9.80;69.90;;;;;;5035747;28;20041;-82
2022/04/11 06:05:14;;;;;;;8.88;5.38;;;9.80;69.20;;;;;;5035907;28;20033;-82
2022/04/11 06:07:40;;;;;;;12.30;5.90;;;9.70;69.20;;;;;;5051452;28;20025;-82
2022/04/11 06:10:07;;;;;;;11.55;5.90;;;9.60;68.80;;;;;;5055737;28;20025;-82
2022/04/11 06:12:33;;;;;;;13.02;6.03;;;9.60;69.20;;;;;;5055491;28;20587;-82
2022/04/11 06:14:59;;;;;;;7.97;5.13;;;9.70;69.10;;;;;;5055848;28;20031;-83
2022/04/11 06:17:24;;;;;;;10.02;5.40;;;9.60;69.50;;;;;;5055463;28;20111;-80
2022/04/11 06:19:55;;;;;;;12.57;6.05;;;9.70;69.30;;;;;;5055595;28;20025;-79
2022/04/11 06:22:21;;;;;;;8.40;5.18;;;9.70;69.30;;;;;;5049509;28;20033;-76
2022/04/11 06:24:48;;;;;;;14.85;6.13;;;9.70;69.50;;;;;;5054921;28;20032;-78
2022/04/11 06:27:14;;;;;;;11.80;6.40;;;9.70;69.00;;;;;;5033882;28;20032;-79
2022/04/11 06:29:40;;;;;;;9.93;5.03;;;9.70;68.60;;;;;;5034179;28;20021;-79
2022/04/11 06:32:06;;;;;;;10.52;6.43;;;9.70;68.70;;;;;;5033947;28;20030;-80
2022/04/11 06:34:34;;;;;;;11.38;5.03;;;9.70;68.70;;;;;;5033898;28;20461;-82
2022/04/11 06:36:59;;;;;;;9.55;6.05;;;9.70;69.50;;;;;;5034013;28;20064;-82
2022/04/11 06:39:25;;;;;;;12.77;6.40;;;9.70;69.40;;;;;;5045382;28;20056;-83
2022/04/11 06:41:51;;;;;;;8.82;6.00;;;9.70;69.10;;;;;;5033579;28;20481;-85
2022/04/11 06:44:16;;;;;;;9.80;6.57;;;9.70;69.60;;;;;;5034034;28;20087;-85
2022/04/11 06:46:42;;;;;;;12.32;6.47;;;9.70;69.40;;;;;;5033838;28;20400;-80
2022/04/11 06:49:07;;;;;;;10.48;6.43;;;9.70;69.80;;;;;;5033751;28;20064;-83
2022/04/11 06:51:33;;;;;;;10.70;6.43;;;9.60;69.80;;;;;;5033329;28;20105;-86
2022/04/11 06:53:59;;;;;;;7.65;6.43;;;9.60;70.20;;;;;;5033662;28;20044;-85
2022/04/11 06:56:25;;;;;;;9.13;6.10;;;9.60;69.30;;;;;;5033196;28;20034;-83
2022/04/11 06:58:50;;;;;;;12.15;7.00;;;9.60;69.60;;;;;;5031914;28;20075;-82
2022/04/11 07:01:16;;;;;;;12.77;6.80;;;9.60;69.10;;;;;;5032790;28;20029;-83
2022/04/11 07:03:42;;;;;;;10.55;6.00;;;9.70;69.70;;;;;;5033595;28;20036;-83
2022/04/11 07:06:08;;;;;;;8.93;6.00;;;9.80;69.60;;;;;;5032760;28;20034;-86
2022/04/11 07:08:34;;;;;;;12.88;5.90;;;9.90;70.20;;;;;;5030617;28;20030;-84
2022/04/11 07:11:00;;;;;;;8.68;5.18;;;10.00;70.00;;;;;;5033357;28;20100;-82
2022/04/11 07:13:26;;;;;;;8.88;5.53;;;10.10;69.70;;;;;;5033029;28;20492;-87
2022/04/11 07:15:51;;;;;;;10.95;6.00;;;10.30;68.90;;;;;;5032862;28;20029;-82
2022/04/11 07:18:19;;;;;;;11.35;6.18;;;10.40;68.40;;;;;;5032435;28;20424;-81
2022/04/11 07:20:45;;;;;;;10.32;5.43;;;10.40;68.40;;;;;;5032603;28;20481;-81
2022/04/11 07:23:11;;;;;;;10.20;5.75;;;10.40;68.00;;;;;;5032695;28;20030;-82
2022/04/11 07:25:37;;;;;;;10.77;5.72;;;10.50;68.50;;;;;;5033106;28;20083;-81
2022/04/11 07:28:03;;;;;;;9.98;5.38;;;10.50;68.20;;;;;;5032753;28;20099;-81
2022/04/11 07:30:29;;;;;;;9.02;6.07;;;10.60;68.30;;;;;;5032966;28;20071;-81
2022/04/11 07:32:54;;;;;;;12.35;5.75;;;10.80;67.60;;;;;;5032158;28;20030;-84
2022/04/11 07:35:20;;;;;;;12.05;5.53;;;10.70;67.80;;;;;;5033476;28;20032;-83
2022/04/11 07:37:46;;;;;;;11.15;5.45;;;10.70;67.50;;;;;;5032894;28;20032;-84
2022/04/11 07:40:12;;;;;;;8.90;5.45;;;10.80;67.70;;;;;;5033026;28;20477;-85
2022/04/11 07:42:37;;;;;;;12.20;5.78;;;10.90;67.80;;;;;;5043512;28;20174;-85
2022/04/11 07:45:04;;;;;;;10.07;5.70;;;11.10;66.30;;;;;;5033754;28;20049;-84
2022/04/11 07:47:29;;;;;;;10.35;5.07;;;11.20;66.40;;;;;;5032768;28;20041;-87
2022/04/11 07:49:55;;;;;;;8.70;4.95;;;11.30;66.20;;;;;;5032573;28;20025;-86
2022/04/11 07:52:21;;;;;;;11.43;5.53;;;11.40;65.50;;;;;;5032647;28;20036;-86
2022/04/11 07:54:47;;;;;;;11.10;5.70;;;11.60;65.90;;;;;;5032388;28;20037;-87
2022/04/11 07:57:13;;;;;;;9.27;5.60;;;11.70;64.90;;;;;;5032818;28;20029;-87
2022/04/11 07:59:40;;;;;;;9.95;5.70;;;11.50;64.60;;;;;;5032410;28;20025;-89
2022/04/11 08:02:06;;;;;;;15.27;5.95;;;11.50;65.40;;;;;;5032353;28;20044;-87
2022/04/11 08:04:32;;;;;;;9.18;5.05;;;11.70;66.20;;;;;;5034080;28;20043;-89
2022/04/11 08:06:59;;;;;;;9.45;5.85;;;11.70;66.70;;;;;;5033588;28;20036;-81
2022/04/11 08:09:25;;;;;;;10.65;6.45;;;11.80;65.90;;;;;;5031678;28;20025;-82
2022/04/11 08:11:51;;;;;;;14.05;6.95;;;12.00;65.00;;;;;;5032195;28;20093;-80
2022/04/11 08:14:16;;;;;;;11.85;5.93;;;11.90;65.20;;;;;;5031746;28;20049;-80
2022/04/11 08:16:42;;;;;;;14.32;6.40;;;11.90;66.20;;;;;;5032151;28;20464;-81
2022/04/11 08:19:08;;;;;;;8.75;5.22;;;12.10;65.00;;;;;;5031891;28;20057;-81
2022/04/11 08:21:34;;;;;;;9.32;6.50;;;12.10;66.60;;;;;;5031823;28;20541;-81
2022/04/11 08:23:59;;;;;;;10.25;5.57;;;12.30;65.30;;;;;;5031823;28;20037;-80
2022/04/11 08:26:25;;;;;;;11.43;6.07;;;12.30;65.50;;;;;;5031914;28;20029;-79
2022/04/11 08:28:51;;;;;;;10.85;5.40;;;12.30;65.30;;;;;;5032147;28;20055;-79
2022/04/11 08:31:16;;;;;;;10.07;4.80;;;12.30;65.60;;;;;;5030129;28;20383;-78
2022/04/11 08:33:42;;;;;;;10.57;5.22;;;12.30;65.80;;;;;;5031497;28;20685;-77
2022/04/11 08:36:07;;;;;;;9.65;4.88;;;12.60;66.40;;;;;;5031756;28;20029;-81
2022/04/11 08:38:33;;;;;;;11.32;5.25;;;12.80;67.10;;;;;;5033626;28;20032;-81
2022/04/11 08:41:02;;;;;;;9.90;4.53;;;13.00;66.40;;;;;;5033303;28;20079;-80
2022/04/11 08:43:27;;;;;;;11.02;4.43;;;13.10;66.10;;;;;;5033233;28;20128;-81
2022/04/11 08:45:57;;;;;;;9.85;4.20;;;13.10;64.60;;;;;;5032864;28;20105;-82
2022/04/11 08:48:24;;;;;;;10.82;3.85;;;13.10;65.80;;;;;;5033386;28;20022;-84
2022/04/11 08:50:49;;;;;;;6.85;3.90;;;13.20;65.80;;;;;;5033405;28;20025;-82
2022/04/11 08:53:20;;;;;;;18.35;5.63;;;13.40;63.80;;;;;;5032888;28;20027;-84
2022/04/11 08:55:47;;;;;;;10.00;4.18;;;13.50;63.40;;;;;;5031594;28;20026;-83
2022/04/11 08:58:12;;;;;;;10.98;4.50;;;13.50;63.40;;;;;;5033216;28;20048;-82
2022/04/11 09:00:38;;;;;;;7.18;3.72;;;13.50;63.10;;;;;;5030938;28;20473;-80
2022/04/11 09:03:05;;;;;;;10.52;4.28;;;13.50;63.70;;;;;;5031789;28;20177;-80
2022/04/11 09:05:32;;;;;;;10.50;4.30;;;13.50;63.20;;;;;;5031396;28;20021;-80
2022/04/11 09:07:59;;;;;;;7.57;3.72;;;13.40;63.60;;;;;;5031073;28;20116;-80
2022/04/11 09:10:32;;;;;;;5.70;2.67;;;13.40;63.50;;;;;;5031039;28;20032;-81
2022/04/11 09:12:59;;;;;;;6.68;3.20;;;13.60;60.60;;;;;;5030313;28;20504;-81
2022/04/11 09:15:26;;;;;;;9.63;3.58;;;13.80;60.60;;;;;;5030874;28;20033;-81
2022/04/11 09:17:54;;;;;;;7.95;3.70;;;13.90;61.90;;;;;;5031602;28;20033;-81
2022/04/11 09:20:21;;;;;;;8.32;3.53;;;14.00;60.30;;;;;;5031219;28;20100;-81
2022/04/11 09:22:47;;;;;;;6.95;2.70;;;14.10;59.90;;;;;;5031314;28;20052;-83
2022/04/11 09:25:14;;;;;;;4.55;2.30;;;14.40;59.40;;;;;;5030760;28;20120;-82
2022/04/11 09:27:40;;;;;;;5.75;2.60;;;14.60;57.40;;;;;;5031078;28;20033;-80
2022/04/11 09:30:19;;;;;;;5.68;2.45;;;14.80;57.30;;;;;;5031210;28;20029;-78
2022/04/11 09:32:53;;;;;;;6.93;2.42;;;14.80;56.90;;;;;;5031314;28;20029;-78
2022/04/11 09:35:23;;;;;;;6.53;2.30;;;14.90;57.40;;;;;;5031029;28;20032;-80
2022/04/11 09:38:08;;;;;;;5.97;1.95;;;15.00;55.30;;;;;;5031280;28;20032;-81
2022/04/11 09:40:41;;;;;;;6.65;2.00;;;15.10;56.60;;;;;;5027575;28;20492;-83
2022/04/11 09:43:08;;;;;;;5.60;2.33;;;15.30;56.90;;;;;;5033617;28;20037;-81
2022/04/11 09:45:42;;;;;;;4.90;2.22;;;15.50;57.90;;;;;;5034961;28;20148;-86
2022/04/11 09:48:09;;;;;;;6.20;1.90;;;15.60;56.80;;;;;;5034957;28;20167;-82
2022/04/11 09:50:35;;;;;;;3.75;1.92;;;15.70;55.10;;;;;;5034524;28;20026;-85
2022/04/11 09:53:11;;;;;;;4.13;1.40;;;15.70;54.80;;;;;;5034410;28;20037;-82
2022/04/11 09:55:38;;;;;;;6.82;1.98;;;15.80;54.90;;;;;;5033407;28;20453;-82
2022/04/11 09:58:05;;;;;;;3.58;1.23;;;15.80;53.20;;;;;;5034676;28;20480;-82
2022/04/11 10:00:34;;;;;;;3.72;1.40;;;15.90;53.60;;;;;;5042166;28;20035;-82
2022/04/11 10:03:00;;;;;;;5.30;2.13;;;15.90;53.30;;;;;;5038241;28;20080;-83
2022/04/11 10:05:26;;;;;;;3.88;1.80;;;15.90;53.70;;;;;;5034820;28;20025;-82
2022/04/11 10:07:55;;;;;;;7.07;1.70;;;16.00;54.30;;;;;;5034333;28;20021;-82
2022/04/11 10:10:22;;;;;;;6.15;1.75;;;16.00;53.30;;;;;;5034417;28;20116;-82
2022/04/11 10:12:48;;;;;;;5.30;1.73;;;16.20;53.90;;;;;;5034114;28;20053;-82
2022/04/11 10:15:14;;;;;;;4.07;1.50;;;16.20;53.10;;;;;;5033341;28;20425;-82
2022/04/11 10:17:41;;;;;;;6.28;1.40;;;16.20;52.00;;;;;;5033620;28;20463;-82
2022/04/11 10:20:07;;;;;;;5.88;1.17;;;16.20;53.10;;;;;;5034080;28;20105;-82
2022/04/11 10:22:42;;;;;;;6.15;1.38;;;16.30;51.60;;;;;;5033862;28;20041;-82
2022/04/11 10:25:07;;;;;;;4.57;1.70;;;16.30;50.50;;;;;;5034169;28;20029;-82
2022/04/11 10:27:34;;;;;;;6.18;2.10;;;16.30;50.70;;;;;;5034098;28;20043;-82
2022/04/11 10:30:02;;;;;;;3.80;1.70;;;16.30;51.70;;;;;;5034023;28;20040;-82
2022/04/11 10:32:30;;;;;;;6.90;2.03;;;16.40;51.60;;;;;;5031488;28;20034;-82
2022/04/11 10:34:55;;;;;;;5.85;1.73;;;16.50;50.90;;;;;;5033180;28;20032;-83
2022/04/11 10:37:28;;;;;;;6.30;1.52;;;16.50;51.70;;;;;;5033490;28;20029;-82
2022/04/11 10:40:17;;;;;;;5.10;1.73;;;16.70;51.40;;;;;;5033934;28;20029;-82
2022/04/11 10:43:00;;;;;;;5.28;2.33;;;16.70;50.20;;;;;;5032795;28;20108;-82
2022/04/11 10:45:35;;;;;;;5.82;1.98;;;16.80;50.50;;;;;;5033107;28;20112;-80
2022/04/11 10:48:01;;;;;;;7.97;1.73;;;16.90;49.30;;;;;;5031872;28;20464;-80
2022/04/11 10:50:39;;;;;;;7.35;2.00;;;16.90;49.70;;;;;;5033872;28;20814;-80
2022/04/11 10:53:25;;;;;;;3.33;1.25;;;16.90;49.20;;;;;;5031280;28;20021;-80
2022/04/11 10:55:56;;;;;;;5.25;1.88;;;17.00;47.70;;;;;;5032613;28;20071;-80
2022/04/11 10:58:37;;;;;;;4.05;1.60;;;17.00;48.10;;;;;;5033926;28;20025;-80
2022/04/11 11:01:03;;;;;;;7.32;1.80;;;17.20;48.60;;;;;;5033597;28;20029;-80
2022/04/11 11:03:29;;;;;;;7.30;1.88;;;17.20;48.80;;;;;;5040327;28;20033;-80
2022/04/11 11:05:54;;;;;;;5.35;1.45;;;17.20;46.90;;;;;;5046257;28;20025;-81
2022/04/11 11:08:21;;;;;;;4.85;1.85;;;17.20;48.90;;;;;;5032749;28;20021;-83
2022/04/11 11:10:48;;;;;;;4.00;1.80;;;17.30;48.20;;;;;;5033321;28;20029;-81
2022/04/11 11:13:35;;;;;;;7.60;2.28;;;17.30;47.70;;;;;;5032976;28;20053;-82
2022/04/11 11:16:07;;;;;;;7.05;2.08;;;17.20;46.50;;;;;;5033418;28;20033;-81
2022/04/11 11:21:17;;;;;;;6.60;2.20;;;17.30;48.90;;;;;;5025825;28;20136;-78
2022/04/11 11:24:02;;;;;;;6.82;2.22;;;17.50;48.10;;;;;;5025676;28;20160;-78
2022/04/11 11:26:29;;;;;;;4.68;2.20;;;17.60;46.70;;;;;;5023813;28;20029;-77
2022/04/11 11:28:55;;;;;;;4.88;2.30;;;17.70;47.80;;;;;;5027030;28;20096;-77
2022/04/11 11:31:22;;;;;;;7.57;2.47;;;17.80;47.60;;;;;;5022211;28;20041;-77
2022/04/11 11:33:50;;;;;;;6.22;2.63;;;17.80;48.00;;;;;;5023814;28;20025;-77
2022/04/11 11:36:17;;;;;;;4.78;1.98;;;17.90;47.50;;;;;;5030985;28;21419;-77
2022/04/11 11:38:42;;;;;;;6.28;2.40;;;17.90;47.60;;;;;;5028105;28;20417;-77
2022/04/11 11:41:08;;;;;;;4.30;2.70;;;18.00;49.40;;;;;;5030165;28;20068;-78
2022/04/11 11:43:34;;;;;;;4.75;2.67;;;18.00;48.80;;;;;;5028197;28;20033;-78
2022/04/11 11:46:01;;;;;;;6.20;2.97;;;18.00;49.50;;;;;;5028999;28;20085;-77
2022/04/11 11:48:29;;;;;;;6.30;3.42;;;17.90;49.70;;;;;;5028649;28;20021;-77
2022/04/11 11:50:56;;;;;;;6.38;2.60;;;17.90;49.70;;;;;;5028503;28;20120;-77
2022/04/11 11:53:22;;;;;;;6.60;3.20;;;17.90;49.40;;;;;;5028488;28;20408;-82
2022/04/11 11:55:58;;;;;;;7.55;2.97;;;18.00;48.80;;;;;;5025405;28;20076;-81
2022/04/11 11:58:38;;;;;;;6.25;2.80;;;18.00;48.70;;;;;;5024199;28;20377;-77
2022/04/11 12:01:06;;;;;;;6.28;2.60;;;18.10;49.00;;;;;;5023313;28;20026;-77
2022/04/11 12:06:24;;;;;;;11.55;3.13;;;18.20;48.00;;;;;;5035942;28;20036;-79
2022/04/11 12:08:54;;;;;;;6.68;2.00;;;18.20;45.70;;;;;;5038652;28;20037;-82
2022/04/11 12:11:21;;;;;;;5.88;2.30;;;18.20;45.80;;;;;;5029993;28;20091;-82
2022/04/11 12:13:46;;;;;;;7.07;2.25;;;18.30;46.70;;;;;;5029543;28;20073;-81
2022/04/11 12:16:17;;;;;;;7.45;2.60;;;18.40;45.60;;;;;;5029927;28;20107;-82
2022/04/11 12:18:54;;;;;;;4.93;2.20;;;18.30;46.00;;;;;;5027064;28;20026;-87
2022/04/11 12:21:30;;;;;;;9.82;2.90;;;18.30;46.20;;;;;;5028470;28;20503;-82
2022/04/11 12:23:56;;;;;;;8.05;3.20;;;18.40;46.50;;;;;;5031639;28;20037;-83
2022/04/11 12:26:30;;;;;;;8.43;2.58;;;18.50;46.40;;;;;;5031820;28;20036;-84
2022/04/11 12:28:56;;;;;;;5.82;2.58;;;18.50;44.10;;;;;;5030140;28;20116;-83
2022/04/11 12:31:22;;;;;;;6.82;2.78;;;18.50;44.50;;;;;;5031908;28;20065;-80
2022/04/11 12:33:52;;;;;;;6.53;2.60;;;18.60;44.50;;;;;;5031584;28;20030;-79
2022/04/11 12:36:23;;;;;;;5.00;2.88;;;18.70;44.50;;;;;;5031986;28;20018;-79
2022/04/11 12:39:00;;;;;;;5.70;2.70;;;18.70;44.00;;;;;;5031072;28;20500;-82
2022/04/11 12:41:35;;;;;;;8.25;3.08;;;18.80;43.90;;;;;;5028377;28;20026;-87
2022/04/11 12:44:09;;;;;;;7.93;2.78;;;18.80;44.90;;;;;;5031695;28;20033;-84
2022/04/11 12:46:41;;;;;;;4.97;2.78;;;18.70;43.10;;;;;;5031569;28;20021;-80
2022/04/11 12:49:08;;;;;;;4.30;2.30;;;18.70;44.00;;;;;;5031087;28;20469;-78
2022/04/11 12:51:34;;;;;;;6.85;2.72;;;18.70;42.70;;;;;;5031573;28;20488;-80
2022/04/11 12:54:06;;;;;;;6.82;2.25;;;18.80;43.50;;;;;;5031644;28;20033;-80
2022/04/11 12:56:33;;;;;;;;;;;18.90;42.60;;;;;;5031941;28;20388;-81